Aviation Forecast PDF Print E-mail

 
met_logo

NATIONAL METEOROLOGICAL SERVICE OF BELIZE

Area Forecast for the Country of Belize


For the period from:

1200 22 MARCH 2017

to

2400 22 MARCH 2017

All Heights in the forecast are above sea level. PS= Positive, MS= Minus. All times are UTC.


A.

SPECIAL FEATURES of the METEOROLOGICAL SITUATION

GENERALLY FAIR WEATHER PREVAILS...

B.

HEIGHT (Ft)

WIND (True Degrees and Knots)

TEMPERATURE (°C)

Surface

35004 BECMG 07007

  

PS29-32

2,000

08010

PS17

5,000

07015

PS14

10,000

30005

PS07

C.

CLOUDS (Amount, Type, Ceiling and Top(optional))

 

 SCT/BKN CU BASES 1,500-2,500FT. TOPS 6,000-8,000FT.

 

 

 

 


D.

SURFACE VISIBILITY:  GREATER THAN 10KM. REDUCED TO 3-5KM IN SHRA AND 500M IN HILL FOG. 


E.

WEATHER: MOSTLY SUNNY WITH ISOLATED SHOWERS, EXCEPT FOR A FEW NORTH. HILL FOG INLAND.


Remarks, Warnings, Turbulence

Barometric Changes

LOW CLOUDS COVERING HILLS

DIURNAL (FALLING)

G.

OUTLOOK:

TO 1200 23 MAR 2017

 PARTLY CLOUDY WITH ONLY ISOLATED SHOWERS. 

H. 

TAF MZBZ

221040Z 2212/2312 35004KT 9999 SCT022 BECMG 2214/2216 07007KT PROB30 TEMPO 2218/2221 5000 SHRA BKN015=

Meteorological Office:

BELIZE

Issued at:

1130 22 MARCH 2017

Forecaster:

M. Smith